sensor_id;sensor_type;location;lat;lon;timestamp;temperature;humidity
15231;DHT22;32569;51.762;8.564;2023-03-01T00:01:10;-1.00;99.90
15231;DHT22;32569;51.762;8.564;2023-03-01T00:03:37;-1.10;99.90
15231;DHT22;32569;51.762;8.564;2023-03-01T00:06:05;-1.20;99.90
15231;DHT22;32569;51.762;8.564;2023-03-01T00:08:32;-1.30;99.90
15231;DHT22;32569;51.762;8.564;2023-03-01T00:11:06;-1.20;99.90
15231;DHT22;32569;51.762;8.564;2023-03-01T00:13:33;-1.10;99.90
15231;DHT22;32569;51.762;8.564;2023-03-01T00:16:02;-1.20;99.90
15231;DHT22;32569;51.762;8.564;2023-03-01T00:18:29;-1.20;99.90
15231;DHT22;32569;51.762;8.564;2023-03-01T00:20:56;-1.20;99.90
15231;DHT22;32569;51.762;8.564;2023-03-01T00:23:23;-1.30;99.90
15231;DHT22;32569;51.762;8.564;2023-03-01T00:25:50;-1.20;99.90
15231;DHT22;32569;51.762;8.564;2023-03-01T00:28:18;-1.20;99.90
15231;DHT22;32569;51.762;8.564;2023-03-01T00:30:46;-1.20;99.90
15231;DHT22;32569;51.762;8.564;2023-03-01T00:33:13;-1.30;99.90
15231;DHT22;32569;51.762;8.564;2023-03-01T00:35:40;-1.40;99.90
15231;DHT22;32569;51.762;8.564;2023-03-01T00:38:07;-1.40;99.90
15231;DHT22;32569;51.762;8.564;2023-03-01T00:40:35;-1.40;99.90
15231;DHT22;32569;51.762;8.564;2023-03-01T00:43:03;-1.50;99.90
15231;DHT22;32569;51.762;8.564;2023-03-01T00:45:32;-1.40;99.90
15231;DHT22;32569;51.762;8.564;2023-03-01T00:47:58;-1.50;99.90
15231;DHT22;32569;51.762;8.564;2023-03-01T00:50:25;-1.60;99.90
15231;DHT22;32569;51.762;8.564;2023-03-01T00:52:53;-1.60;99.90
15231;DHT22;32569;51.762;8.564;2023-03-01T00:55:20;-1.70;99.90
15231;DHT22;32569;51.762;8.564;2023-03-01T00:57:46;-1.80;99.90
15231;DHT22;32569;51.762;8.564;2023-03-01T01:00:14;-1.80;99.90
15231;DHT22;32569;51.762;8.564;2023-03-01T01:02:42;-1.70;99.90
15231;DHT22;32569;51.762;8.564;2023-03-01T01:05:09;-1.60;99.90
15231;DHT22;32569;51.762;8.564;2023-03-01T01:07:36;-1.50;99.90
15231;DHT22;32569;51.762;8.564;2023-03-01T01:10:03;-1.60;99.90
15231;DHT22;32569;51.762;8.564;2023-03-01T01:12:30;-1.70;99.90
15231;DHT22;32569;51.762;8.564;2023-03-01T01:14:57;-1.80;99.90
15231;DHT22;32569;51.762;8.564;2023-03-01T01:17:24;-1.80;99.90
15231;DHT22;32569;51.762;8.564;2023-03-01T01:19:51;-1.70;99.90
15231;DHT22;32569;51.762;8.564;2023-03-01T01:22:18;-1.70;99.90
15231;DHT22;32569;51.762;8.564;2023-03-01T01:24:45;-1.70;99.90
15231;DHT22;32569;51.762;8.564;2023-03-01T01:27:11;-1.80;99.90
15231;DHT22;32569;51.762;8.564;2023-03-01T01:29:38;-2.00;99.90
15231;DHT22;32569;51.762;8.564;2023-03-01T01:32:05;-2.00;99.90
15231;DHT22;32569;51.762;8.564;2023-03-01T01:34:31;-1.90;99.90
15231;DHT22;32569;51.762;8.564;2023-03-01T01:37:02;-1.90;99.90
15231;DHT22;32569;51.762;8.564;2023-03-01T01:39:36;-2.00;99.90
15231;DHT22;32569;51.762;8.564;2023-03-01T01:42:03;-2.00;99.90
15231;DHT22;32569;51.762;8.564;2023-03-01T01:44:33;-2.00;99.90
15231;DHT22;32569;51.762;8.564;2023-03-01T01:47:02;-1.90;99.90
15231;DHT22;32569;51.762;8.564;2023-03-01T01:49:36;-2.00;99.90
15231;DHT22;32569;51.762;8.564;2023-03-01T01:52:09;-1.90;99.90
15231;DHT22;32569;51.762;8.564;2023-03-01T01:54:42;-1.90;99.90
15231;DHT22;32569;51.762;8.564;2023-03-01T01:57:13;-1.80;99.90
15231;DHT22;32569;51.762;8.564;2023-03-01T01:59:42;-1.80;99.90
15231;DHT22;32569;51.762;8.564;2023-03-01T02:02:10;-1.80;99.90
15231;DHT22;32569;51.762;8.564;2023-03-01T02:04:37;-1.80;99.90
15231;DHT22;32569;51.762;8.564;2023-03-01T02:07:13;-1.80;99.90
15231;DHT22;32569;51.762;8.564;2023-03-01T02:09:42;-1.80;99.90
15231;DHT22;32569;51.762;8.564;2023-03-01T02:12:10;-1.80;99.90
15231;DHT22;32569;51.762;8.564;2023-03-01T02:14:37;-1.80;99.90
15231;DHT22;32569;51.762;8.564;2023-03-01T02:17:04;-1.80;99.90
15231;DHT22;32569;51.762;8.564;2023-03-01T02:19:42;-1.70;99.90
15231;DHT22;32569;51.762;8.564;2023-03-01T02:22:18;-1.80;99.90
15231;DHT22;32569;51.762;8.564;2023-03-01T02:24:50;-1.70;99.90
15231;DHT22;32569;51.762;8.564;2023-03-01T02:27:22;-1.80;99.90
15231;DHT22;32569;51.762;8.564;2023-03-01T02:29:51;-1.90;99.90
15231;DHT22;32569;51.762;8.564;2023-03-01T02:32:19;-2.10;99.90
15231;DHT22;32569;51.762;8.564;2023-03-01T02:34:51;-2.20;99.90
15231;DHT22;32569;51.762;8.564;2023-03-01T02:37:19;-2.40;99.90
15231;DHT22;32569;51.762;8.564;2023-03-01T02:39:55;-2.30;99.90
15231;DHT22;32569;51.762;8.564;2023-03-01T02:42:26;-2.20;99.90
15231;DHT22;32569;51.762;8.564;2023-03-01T02:44:56;-2.30;99.90
15231;DHT22;32569;51.762;8.564;2023-03-01T02:47:22;-2.60;99.90
15231;DHT22;32569;51.762;8.564;2023-03-01T02:49:49;-2.70;99.90
15231;DHT22;32569;51.762;8.564;2023-03-01T02:52:41;-2.60;99.90
15231;DHT22;32569;51.762;8.564;2023-03-01T02:55:14;-2.50;99.90
15231;DHT22;32569;51.762;8.564;2023-03-01T02:57:43;-2.40;99.90
15231;DHT22;32569;51.762;8.564;2023-03-01T03:00:14;-2.50;99.90
15231;DHT22;32569;51.762;8.564;2023-03-01T03:02:45;-2.50;99.90
15231;DHT22;32569;51.762;8.564;2023-03-01T03:05:14;-2.40;99.90
15231;DHT22;32569;51.762;8.564;2023-03-01T03:07:43;-2.30;99.90
15231;DHT22;32569;51.762;8.564;2023-03-01T03:10:12;-2.30;99.90
15231;DHT22;32569;51.762;8.564;2023-03-01T03:12:39;-2.30;99.90
15231;DHT22;32569;51.762;8.564;2023-03-01T03:15:08;-2.40;99.90
15231;DHT22;32569;51.762;8.564;2023-03-01T03:17:41;-2.30;99.90
15231;DHT22;32569;51.762;8.564;2023-03-01T03:20:10;-2.40;99.90
15231;DHT22;32569;51.762;8.564;2023-03-01T03:22:38;-2.40;99.90
15231;DHT22;32569;51.762;8.564;2023-03-01T03:25:08;-2.40;99.90
15231;DHT22;32569;51.762;8.564;2023-03-01T03:27:36;-2.40;99.90
15231;DHT22;32569;51.762;8.564;2023-03-01T03:30:03;-2.30;99.90
15231;DHT22;32569;51.762;8.564;2023-03-01T03:32:36;-2.30;99.90
15231;DHT22;32569;51.762;8.564;2023-03-01T03:35:06;-2.30;99.90
15231;DHT22;32569;51.762;8.564;2023-03-01T03:37:35;-2.30;99.90
15231;DHT22;32569;51.762;8.564;2023-03-01T03:40:30;-2.20;99.90
15231;DHT22;32569;51.762;8.564;2023-03-01T03:42:57;-2.20;99.90
15231;DHT22;32569;51.762;8.564;2023-03-01T03:45:24;-2.40;99.90
15231;DHT22;32569;51.762;8.564;2023-03-01T03:47:51;-2.50;99.90
15231;DHT22;32569;51.762;8.564;2023-03-01T03:50:19;-2.50;99.90
15231;DHT22;32569;51.762;8.564;2023-03-01T03:52:45;-2.60;99.90
15231;DHT22;32569;51.762;8.564;2023-03-01T03:55:12;-2.60;99.90
15231;DHT22;32569;51.762;8.564;2023-03-01T03:57:40;-2.60;99.90
15231;DHT22;32569;51.762;8.564;2023-03-01T04:00:09;-2.70;99.90
15231;DHT22;32569;51.762;8.564;2023-03-01T04:02:38;-3.00;99.90
15231;DHT22;32569;51.762;8.564;2023-03-01T04:05:10;-3.10;99.90
15231;DHT22;32569;51.762;8.564;2023-03-01T04:07:39;-3.10;99.90
15231;DHT22;32569;51.762;8.564;2023-03-01T04:10:07;-3.30;99.90
15231;DHT22;32569;51.762;8.564;2023-03-01T04:12:34;-3.50;99.90
15231;DHT22;32569;51.762;8.564;2023-03-01T04:15:01;-3.50;99.90
15231;DHT22;32569;51.762;8.564;2023-03-01T04:17:37;-3.50;99.90
15231;DHT22;32569;51.762;8.564;2023-03-01T04:20:05;-3.60;99.90
15231;DHT22;32569;51.762;8.564;2023-03-01T04:22:33;-3.60;99.90
15231;DHT22;32569;51.762;8.564;2023-03-01T04:25:01;-3.70;99.90
15231;DHT22;32569;51.762;8.564;2023-03-01T04:27:31;-3.60;99.90
15231;DHT22;32569;51.762;8.564;2023-03-01T04:29:58;-3.50;99.90
15231;DHT22;32569;51.762;8.564;2023-03-01T04:32:25;-3.50;99.90
15231;DHT22;32569;51.762;8.564;2023-03-01T04:34:51;-3.60;99.90
15231;DHT22;32569;51.762;8.564;2023-03-01T04:37:18;-3.50;99.90
15231;DHT22;32569;51.762;8.564;2023-03-01T04:39:45;-3.40;99.90
15231;DHT22;32569;51.762;8.564;2023-03-01T04:42:14;-3.30;99.90
15231;DHT22;32569;51.762;8.564;2023-03-01T04:44:41;-3.30;99.90
15231;DHT22;32569;51.762;8.564;2023-03-01T04:47:07;-3.30;99.90
15231;DHT22;32569;51.762;8.564;2023-03-01T04:49:34;-3.40;99.90
15231;DHT22;32569;51.762;8.564;2023-03-01T04:52:01;-3.40;99.90
15231;DHT22;32569;51.762;8.564;2023-03-01T04:54:32;-3.20;99.90
15231;DHT22;32569;51.762;8.564;2023-03-01T04:56:59;-3.10;99.90
15231;DHT22;32569;51.762;8.564;2023-03-01T04:59:28;-3.00;99.90
15231;DHT22;32569;51.762;8.564;2023-03-01T05:01:58;-3.10;99.90
15231;DHT22;32569;51.762;8.564;2023-03-01T05:04:26;-3.10;99.90
15231;DHT22;32569;51.762;8.564;2023-03-01T05:06:52;-3.20;99.90
15231;DHT22;32569;51.762;8.564;2023-03-01T05:09:19;-3.30;99.90
15231;DHT22;32569;51.762;8.564;2023-03-01T05:11:46;-3.30;99.90
15231;DHT22;32569;51.762;8.564;2023-03-01T05:14:13;-3.30;99.90
15231;DHT22;32569;51.762;8.564;2023-03-01T05:16:41;-3.30;99.90
15231;DHT22;32569;51.762;8.564;2023-03-01T05:19:07;-3.30;99.90
15231;DHT22;32569;51.762;8.564;2023-03-01T05:21:41;-3.20;99.90
15231;DHT22;32569;51.762;8.564;2023-03-01T05:24:21;-3.10;99.90
15231;DHT22;32569;51.762;8.564;2023-03-01T05:26:48;-3.00;99.90
15231;DHT22;32569;51.762;8.564;2023-03-01T05:29:17;-3.00;99.90
15231;DHT22;32569;51.762;8.564;2023-03-01T05:31:45;-3.00;99.90
15231;DHT22;32569;51.762;8.564;2023-03-01T05:34:12;-3.10;99.90
15231;DHT22;32569;51.762;8.564;2023-03-01T05:36:39;-3.10;99.90
15231;DHT22;32569;51.762;8.564;2023-03-01T05:39:05;-3.10;99.90
15231;DHT22;32569;51.762;8.564;2023-03-01T05:41:32;-3.00;99.90
15231;DHT22;32569;51.762;8.564;2023-03-01T05:43:59;-2.90;99.90
15231;DHT22;32569;51.762;8.564;2023-03-01T05:46:25;-3.00;99.90
15231;DHT22;32569;51.762;8.564;2023-03-01T05:48:53;-3.00;99.90
15231;DHT22;32569;51.762;8.564;2023-03-01T05:51:20;-3.00;99.90
15231;DHT22;32569;51.762;8.564;2023-03-01T05:53:47;-2.90;99.90
15231;DHT22;32569;51.762;8.564;2023-03-01T05:56:14;-2.80;99.90
15231;DHT22;32569;51.762;8.564;2023-03-01T05:58:40;-2.80;99.90
15231;DHT22;32569;51.762;8.564;2023-03-01T06:01:11;-2.90;99.90
15231;DHT22;32569;51.762;8.564;2023-03-01T06:03:38;-2.80;99.90
15231;DHT22;32569;51.762;8.564;2023-03-01T06:06:06;-2.70;99.90
15231;DHT22;32569;51.762;8.564;2023-03-01T06:08:33;-2.70;99.90
15231;DHT22;32569;51.762;8.564;2023-03-01T06:11:00;-2.80;99.90
15231;DHT22;32569;51.762;8.564;2023-03-01T06:13:26;-2.90;99.90
15231;DHT22;32569;51.762;8.564;2023-03-01T06:15:53;-3.10;99.90
15231;DHT22;32569;51.762;8.564;2023-03-01T06:18:19;-3.20;99.90
15231;DHT22;32569;51.762;8.564;2023-03-01T06:20:52;-3.20;99.90
15231;DHT22;32569;51.762;8.564;2023-03-01T06:23:21;-3.40;99.90
15231;DHT22;32569;51.762;8.564;2023-03-01T06:25:47;-3.40;99.90
15231;DHT22;32569;51.762;8.564;2023-03-01T06:28:14;-3.40;99.90
15231;DHT22;32569;51.762;8.564;2023-03-01T06:30:41;-3.20;99.90
15231;DHT22;32569;51.762;8.564;2023-03-01T06:33:08;-3.00;99.90
15231;DHT22;32569;51.762;8.564;2023-03-01T06:35:34;-3.00;99.90
15231;DHT22;32569;51.762;8.564;2023-03-01T06:38:02;-3.00;99.90
15231;DHT22;32569;51.762;8.564;2023-03-01T06:40:31;-3.00;99.90
15231;DHT22;32569;51.762;8.564;2023-03-01T06:42:58;-3.00;99.90
15231;DHT22;32569;51.762;8.564;2023-03-01T06:45:26;-2.90;99.90
15231;DHT22;32569;51.762;8.564;2023-03-01T06:48:03;-3.00;99.90
15231;DHT22;32569;51.762;8.564;2023-03-01T06:50:30;-2.90;99.90
15231;DHT22;32569;51.762;8.564;2023-03-01T06:52:57;-2.90;99.90
15231;DHT22;32569;51.762;8.564;2023-03-01T06:55:24;-2.70;99.90
15231;DHT22;32569;51.762;8.564;2023-03-01T06:57:55;-2.60;99.90
15231;DHT22;32569;51.762;8.564;2023-03-01T07:00:23;-2.70;99.90
15231;DHT22;32569;51.762;8.564;2023-03-01T07:02:50;-2.60;99.90
15231;DHT22;32569;51.762;8.564;2023-03-01T07:05:17;-2.70;99.90
15231;DHT22;32569;51.762;8.564;2023-03-01T07:07:44;-2.70;99.90
15231;DHT22;32569;51.762;8.564;2023-03-01T07:10:11;-2.70;99.90
15231;DHT22;32569;51.762;8.564;2023-03-01T07:12:38;-2.70;99.90
15231;DHT22;32569;51.762;8.564;2023-03-01T07:15:10;-2.70;99.90
15231;DHT22;32569;51.762;8.564;2023-03-01T07:17:37;-2.60;99.90
15231;DHT22;32569;51.762;8.564;2023-03-01T07:20:05;-2.70;99.90
15231;DHT22;32569;51.762;8.564;2023-03-01T07:22:35;-2.60;99.90
15231;DHT22;32569;51.762;8.564;2023-03-01T07:25:01;-2.50;99.90
15231;DHT22;32569;51.762;8.564;2023-03-01T07:27:28;-2.40;99.90
15231;DHT22;32569;51.762;8.564;2023-03-01T07:29:54;-2.40;99.90
15231;DHT22;32569;51.762;8.564;2023-03-01T07:32:22;-2.30;99.90
15231;DHT22;32569;51.762;8.564;2023-03-01T07:34:50;-2.20;99.90
15231;DHT22;32569;51.762;8.564;2023-03-01T07:37:17;-2.10;99.90
15231;DHT22;32569;51.762;8.564;2023-03-01T07:39:46;-1.90;99.90
15231;DHT22;32569;51.762;8.564;2023-03-01T07:42:13;-1.80;99.90
15231;DHT22;32569;51.762;8.564;2023-03-01T07:44:39;-1.70;99.90
15231;DHT22;32569;51.762;8.564;2023-03-01T07:47:06;-1.60;99.90
15231;DHT22;32569;51.762;8.564;2023-03-01T07:49:34;-1.60;99.90
15231;DHT22;32569;51.762;8.564;2023-03-01T07:52:04;-1.50;99.90
15231;DHT22;32569;51.762;8.564;2023-03-01T07:54:31;-1.40;99.90
15231;DHT22;32569;51.762;8.564;2023-03-01T07:56:57;-1.30;99.90
15231;DHT22;32569;51.762;8.564;2023-03-01T07:59:24;-1.20;99.90
15231;DHT22;32569;51.762;8.564;2023-03-01T08:01:54;-1.20;99.90
15231;DHT22;32569;51.762;8.564;2023-03-01T08:04:21;-1.10;99.90
15231;DHT22;32569;51.762;8.564;2023-03-01T08:06:49;-1.00;99.90
15231;DHT22;32569;51.762;8.564;2023-03-01T08:09:16;-1.00;99.90
15231;DHT22;32569;51.762;8.564;2023-03-01T08:11:43;-0.80;99.90
15231;DHT22;32569;51.762;8.564;2023-03-01T08:14:09;-0.80;99.90
15231;DHT22;32569;51.762;8.564;2023-03-01T08:16:37;-0.80;99.90
15231;DHT22;32569;51.762;8.564;2023-03-01T08:19:04;-0.60;99.90
15231;DHT22;32569;51.762;8.564;2023-03-01T08:21:32;-0.60;99.90
15231;DHT22;32569;51.762;8.564;2023-03-01T08:24:01;-0.60;99.90
15231;DHT22;32569;51.762;8.564;2023-03-01T08:26:29;-0.40;99.90
15231;DHT22;32569;51.762;8.564;2023-03-01T08:28:55;-0.20;99.90
15231;DHT22;32569;51.762;8.564;2023-03-01T08:31:23;0.00;99.90
15231;DHT22;32569;51.762;8.564;2023-03-01T08:33:53;0.20;99.70
15231;DHT22;32569;51.762;8.564;2023-03-01T08:36:21;0.30;99.70
15231;DHT22;32569;51.762;8.564;2023-03-01T08:38:48;0.40;99.40
15231;DHT22;32569;51.762;8.564;2023-03-01T08:41:17;0.50;98.90
15231;DHT22;32569;51.762;8.564;2023-03-01T08:43:43;0.60;98.60
15231;DHT22;32569;51.762;8.564;2023-03-01T08:46:11;0.70;98.80
15231;DHT22;32569;51.762;8.564;2023-03-01T08:48:38;0.60;98.80
15231;DHT22;32569;51.762;8.564;2023-03-01T08:51:10;0.60;98.80
15231;DHT22;32569;51.762;8.564;2023-03-01T08:53:37;0.60;99.00
15231;DHT22;32569;51.762;8.564;2023-03-01T08:56:04;0.50;99.20
15231;DHT22;32569;51.762;8.564;2023-03-01T08:58:32;0.70;99.10
15231;DHT22;32569;51.762;8.564;2023-03-01T09:00:58;0.90;98.60
15231;DHT22;32569;51.762;8.564;2023-03-01T09:03:25;1.10;99.00
15231;DHT22;32569;51.762;8.564;2023-03-01T09:05:53;1.20;98.50
15231;DHT22;32569;51.762;8.564;2023-03-01T09:08:25;1.20;98.30
15231;DHT22;32569;51.762;8.564;2023-03-01T09:10:52;1.40;98.40
15231;DHT22;32569;51.762;8.564;2023-03-01T09:13:19;1.50;98.20
15231;DHT22;32569;51.762;8.564;2023-03-01T09:15:47;1.60;97.70
15231;DHT22;32569;51.762;8.564;2023-03-01T09:18:13;1.60;97.70
15231;DHT22;32569;51.762;8.564;2023-03-01T09:20:40;1.70;97.10
15231;DHT22;32569;51.762;8.564;2023-03-01T09:23:07;1.80;97.10
15231;DHT22;32569;51.762;8.564;2023-03-01T09:25:34;2.00;96.40
15231;DHT22;32569;51.762;8.564;2023-03-01T09:28:01;2.10;95.70
15231;DHT22;32569;51.762;8.564;2023-03-01T09:30:27;2.20;95.70
15231;DHT22;32569;51.762;8.564;2023-03-01T09:32:56;2.20;95.00
15231;DHT22;32569;51.762;8.564;2023-03-01T09:35:23;2.30;95.60
15231;DHT22;32569;51.762;8.564;2023-03-01T09:37:49;2.30;95.40
15231;DHT22;32569;51.762;8.564;2023-03-01T09:40:19;2.40;94.80
15231;DHT22;32569;51.762;8.564;2023-03-01T09:42:54;2.50;94.90
15231;DHT22;32569;51.762;8.564;2023-03-01T09:45:27;2.50;95.10
15231;DHT22;32569;51.762;8.564;2023-03-01T09:47:57;2.60;95.30
15231;DHT22;32569;51.762;8.564;2023-03-01T09:50:26;2.60;95.10
15231;DHT22;32569;51.762;8.564;2023-03-01T09:53:00;2.60;94.60
15231;DHT22;32569;51.762;8.564;2023-03-01T09:55:31;2.70;94.30
15231;DHT22;32569;51.762;8.564;2023-03-01T09:58:06;2.80;94.40
15231;DHT22;32569;51.762;8.564;2023-03-01T10:00:43;2.70;93.80
15231;DHT22;32569;51.762;8.564;2023-03-01T10:03:17;2.70;93.90
15231;DHT22;32569;51.762;8.564;2023-03-01T10:05:55;2.70;93.90
15231;DHT22;32569;51.762;8.564;2023-03-01T10:08:36;2.80;94.00
15231;DHT22;32569;51.762;8.564;2023-03-01T10:11:05;2.80;94.20
15231;DHT22;32569;51.762;8.564;2023-03-01T10:13:45;2.90;94.40
15231;DHT22;32569;51.762;8.564;2023-03-01T10:16:16;3.00;94.30
15231;DHT22;32569;51.762;8.564;2023-03-01T10:18:51;3.00;94.70
15231;DHT22;32569;51.762;8.564;2023-03-01T10:21:19;3.10;93.60
15231;DHT22;32569;51.762;8.564;2023-03-01T10:23:50;3.00;92.80
15231;DHT22;32569;51.762;8.564;2023-03-01T10:26:27;3.00;93.10
15231;DHT22;32569;51.762;8.564;2023-03-01T10:29:02;3.10;92.80
15231;DHT22;32569;51.762;8.564;2023-03-01T10:31:37;3.10;92.60
15231;DHT22;32569;51.762;8.564;2023-03-01T10:34:11;3.10;92.50
15231;DHT22;32569;51.762;8.564;2023-03-01T10:36:39;3.10;92.70
15231;DHT22;32569;51.762;8.564;2023-03-01T10:39:13;3.20;92.50
15231;DHT22;32569;51.762;8.564;2023-03-01T10:41:52;3.30;92.70
15231;DHT22;32569;51.762;8.564;2023-03-01T10:44:36;3.30;92.30
15231;DHT22;32569;51.762;8.564;2023-03-01T10:47:03;3.30;92.10
15231;DHT22;32569;51.762;8.564;2023-03-01T10:49:31;3.30;92.00
15231;DHT22;32569;51.762;8.564;2023-03-01T10:52:11;3.30;91.80
15231;DHT22;32569;51.762;8.564;2023-03-01T10:54:52;3.30;92.60
15231;DHT22;32569;51.762;8.564;2023-03-01T10:57:29;3.40;92.30
15231;DHT22;32569;51.762;8.564;2023-03-01T11:00:10;3.40;92.70
15231;DHT22;32569;51.762;8.564;2023-03-01T11:02:40;3.50;92.70
15231;DHT22;32569;51.762;8.564;2023-03-01T11:05:18;3.50;92.20
15231;DHT22;32569;51.762;8.564;2023-03-01T11:07:50;3.50;92.60
15231;DHT22;32569;51.762;8.564;2023-03-01T11:10:18;3.60;92.40
15231;DHT22;32569;51.762;8.564;2023-03-01T11:12:45;3.60;92.30
15231;DHT22;32569;51.762;8.564;2023-03-01T11:15:21;3.70;92.80
15231;DHT22;32569;51.762;8.564;2023-03-01T11:17:49;3.80;92.60
15231;DHT22;32569;51.762;8.564;2023-03-01T11:20:24;3.80;92.20
15231;DHT22;32569;51.762;8.564;2023-03-01T11:22:54;3.70;92.40
15231;DHT22;32569;51.762;8.564;2023-03-01T11:25:25;3.80;92.30
15231;DHT22;32569;51.762;8.564;2023-03-01T11:27:53;3.80;92.50
15231;DHT22;32569;51.762;8.564;2023-03-01T11:30:27;3.70;92.70
15231;DHT22;32569;51.762;8.564;2023-03-01T11:33:05;3.80;92.10
15231;DHT22;32569;51.762;8.564;2023-03-01T11:35:41;3.80;92.30
15231;DHT22;32569;51.762;8.564;2023-03-01T11:38:22;3.80;92.00
15231;DHT22;32569;51.762;8.564;2023-03-01T11:40:53;3.90;92.30
15231;DHT22;32569;51.762;8.564;2023-03-01T11:43:32;4.10;91.90
15231;DHT22;32569;51.762;8.564;2023-03-01T11:46:36;3.90;92.10
15231;DHT22;32569;51.762;8.564;2023-03-01T11:52:11;4.10;91.70
15231;DHT22;32569;51.762;8.564;2023-03-01T11:54:52;4.20;91.90
15231;DHT22;32569;51.762;8.564;2023-03-01T11:57:36;4.30;91.60
15231;DHT22;32569;51.762;8.564;2023-03-01T12:00:17;4.30;91.50
15231;DHT22;32569;51.762;8.564;2023-03-01T12:03:19;4.30;91.50
15231;DHT22;32569;51.762;8.564;2023-03-01T12:06:04;4.40;91.90
15231;DHT22;32569;51.762;8.564;2023-03-01T12:08:37;4.50;91.30
15231;DHT22;32569;51.762;8.564;2023-03-01T12:11:15;4.50;91.80
15231;DHT22;32569;51.762;8.564;2023-03-01T12:14:13;4.60;91.90
15231;DHT22;32569;51.762;8.564;2023-03-01T12:17:00;4.60;92.00
15231;DHT22;32569;51.762;8.564;2023-03-01T12:19:37;4.60;91.90
15231;DHT22;32569;51.762;8.564;2023-03-01T12:22:21;4.70;91.20
15231;DHT22;32569;51.762;8.564;2023-03-01T12:25:20;4.60;91.20
15231;DHT22;32569;51.762;8.564;2023-03-01T12:27:59;4.80;90.90
15231;DHT22;32569;51.762;8.564;2023-03-01T12:30:38;4.90;90.90
15231;DHT22;32569;51.762;8.564;2023-03-01T12:33:17;5.00;89.80
15231;DHT22;32569;51.762;8.564;2023-03-01T12:36:06;4.90;90.00
15231;DHT22;32569;51.762;8.564;2023-03-01T12:38:41;5.00;90.90
15231;DHT22;32569;51.762;8.564;2023-03-01T12:41:23;5.10;90.90
15231;DHT22;32569;51.762;8.564;2023-03-01T12:44:04;5.10;90.80
15231;DHT22;32569;51.762;8.564;2023-03-01T12:46:52;5.10;90.50
15231;DHT22;32569;51.762;8.564;2023-03-01T12:49:23;5.20;90.50
15231;DHT22;32569;51.762;8.564;2023-03-01T12:51:58;5.20;90.10
15231;DHT22;32569;51.762;8.564;2023-03-01T12:54:27;5.10;89.50
15231;DHT22;32569;51.762;8.564;2023-03-01T12:56:57;5.20;90.40
15231;DHT22;32569;51.762;8.564;2023-03-01T12:59:31;5.20;90.40
15231;DHT22;32569;51.762;8.564;2023-03-01T13:02:05;5.30;90.80
15231;DHT22;32569;51.762;8.564;2023-03-01T13:04:45;5.20;90.20
15231;DHT22;32569;51.762;8.564;2023-03-01T13:07:23;5.30;90.60
15231;DHT22;32569;51.762;8.564;2023-03-01T13:09:56;5.40;89.60
15231;DHT22;32569;51.762;8.564;2023-03-01T13:12:46;5.40;88.40
15231;DHT22;32569;51.762;8.564;2023-03-01T13:15:31;5.30;89.00
15231;DHT22;32569;51.762;8.564;2023-03-01T13:17:59;5.40;88.50
15231;DHT22;32569;51.762;8.564;2023-03-01T13:20:31;5.40;89.70
15231;DHT22;32569;51.762;8.564;2023-03-01T13:23:04;5.50;88.80
15231;DHT22;32569;51.762;8.564;2023-03-01T13:25:32;5.50;89.60
15231;DHT22;32569;51.762;8.564;2023-03-01T13:28:39;5.50;88.00
15231;DHT22;32569;51.762;8.564;2023-03-01T13:31:08;5.60;88.80
15231;DHT22;32569;51.762;8.564;2023-03-01T13:33:46;5.60;88.20
15231;DHT22;32569;51.762;8.564;2023-03-01T13:36:45;5.50;89.20
15231;DHT22;32569;51.762;8.564;2023-03-01T13:39:30;5.60;87.70
15231;DHT22;32569;51.762;8.564;2023-03-01T13:41:59;5.70;89.50
15231;DHT22;32569;51.762;8.564;2023-03-01T13:44:30;5.70;87.50
15231;DHT22;32569;51.762;8.564;2023-03-01T13:47:01;5.70;88.20
15231;DHT22;32569;51.762;8.564;2023-03-01T13:49:36;5.70;86.30
15231;DHT22;32569;51.762;8.564;2023-03-01T13:52:29;5.60;86.70
15231;DHT22;32569;51.762;8.564;2023-03-01T13:54:58;5.70;87.20
15231;DHT22;32569;51.762;8.564;2023-03-01T13:57:33;5.80;88.10
15231;DHT22;32569;51.762;8.564;2023-03-01T14:00:02;5.80;87.90
15231;DHT22;32569;51.762;8.564;2023-03-01T14:02:30;5.80;83.70
15231;DHT22;32569;51.762;8.564;2023-03-01T14:04:57;5.90;82.60
15231;DHT22;32569;51.762;8.564;2023-03-01T14:07:25;5.90;83.50
15231;DHT22;32569;51.762;8.564;2023-03-01T14:09:56;5.80;85.00
15231;DHT22;32569;51.762;8.564;2023-03-01T14:12:36;5.80;85.10
15231;DHT22;32569;51.762;8.564;2023-03-01T14:15:15;5.90;83.90
15231;DHT22;32569;51.762;8.564;2023-03-01T14:20:38;5.90;84.80
15231;DHT22;32569;51.762;8.564;2023-03-01T14:25:47;5.90;85.60
15231;DHT22;32569;51.762;8.564;2023-03-01T14:28:17;6.00;85.10
15231;DHT22;32569;51.762;8.564;2023-03-01T14:30:46;6.00;84.50
15231;DHT22;32569;51.762;8.564;2023-03-01T14:33:20;6.00;83.60
15231;DHT22;32569;51.762;8.564;2023-03-01T14:35:55;5.90;84.10
15231;DHT22;32569;51.762;8.564;2023-03-01T14:38:28;5.90;83.80
15231;DHT22;32569;51.762;8.564;2023-03-01T14:40:58;5.90;84.00
15231;DHT22;32569;51.762;8.564;2023-03-01T14:43:25;6.00;84.20
15231;DHT22;32569;51.762;8.564;2023-03-01T14:45:53;5.90;84.00
15231;DHT22;32569;51.762;8.564;2023-03-01T14:48:20;6.10;84.50
15231;DHT22;32569;51.762;8.564;2023-03-01T14:50:47;6.00;84.20
15231;DHT22;32569;51.762;8.564;2023-03-01T14:53:17;6.00;83.20
15231;DHT22;32569;51.762;8.564;2023-03-01T14:55:47;6.00;83.20
15231;DHT22;32569;51.762;8.564;2023-03-01T14:58:18;5.90;83.90
15231;DHT22;32569;51.762;8.564;2023-03-01T15:00:49;5.90;82.30
15231;DHT22;32569;51.762;8.564;2023-03-01T15:03:24;5.90;83.60
15231;DHT22;32569;51.762;8.564;2023-03-01T15:05:51;5.90;84.80
15231;DHT22;32569;51.762;8.564;2023-03-01T15:08:21;5.90;84.30
15231;DHT22;32569;51.762;8.564;2023-03-01T15:11:00;5.80;85.50
15231;DHT22;32569;51.762;8.564;2023-03-01T15:13:31;5.80;85.60
15231;DHT22;32569;51.762;8.564;2023-03-01T15:16:16;5.80;85.00
15231;DHT22;32569;51.762;8.564;2023-03-01T15:18:46;5.90;85.30
15231;DHT22;32569;51.762;8.564;2023-03-01T15:21:19;5.90;85.60
15231;DHT22;32569;51.762;8.564;2023-03-01T15:23:50;5.90;86.40
15231;DHT22;32569;51.762;8.564;2023-03-01T15:26:23;5.90;87.10
15231;DHT22;32569;51.762;8.564;2023-03-01T15:28:52;5.80;88.30
15231;DHT22;32569;51.762;8.564;2023-03-01T15:31:21;5.70;88.20
15231;DHT22;32569;51.762;8.564;2023-03-01T15:33:50;5.70;87.20
15231;DHT22;32569;51.762;8.564;2023-03-01T15:36:32;5.80;87.80
15231;DHT22;32569;51.762;8.564;2023-03-01T15:39:00;5.80;87.30
15231;DHT22;32569;51.762;8.564;2023-03-01T15:41:29;5.80;86.20
15231;DHT22;32569;51.762;8.564;2023-03-01T15:43:58;5.70;88.00
15231;DHT22;32569;51.762;8.564;2023-03-01T15:46:28;5.70;88.50
15231;DHT22;32569;51.762;8.564;2023-03-01T15:49:00;5.60;89.00
15231;DHT22;32569;51.762;8.564;2023-03-01T15:51:30;5.50;89.90
15231;DHT22;32569;51.762;8.564;2023-03-01T15:54:00;5.40;90.30
15231;DHT22;32569;51.762;8.564;2023-03-01T15:56:28;5.40;90.40
15231;DHT22;32569;51.762;8.564;2023-03-01T15:58:58;5.40;90.60
15231;DHT22;32569;51.762;8.564;2023-03-01T16:01:25;5.40;90.30
15231;DHT22;32569;51.762;8.564;2023-03-01T16:03:52;5.40;90.50
15231;DHT22;32569;51.762;8.564;2023-03-01T16:06:20;5.40;90.50
15231;DHT22;32569;51.762;8.564;2023-03-01T16:08:47;5.40;90.30